createdAt,value
2019-04-11T00:00:45.924Z,6.20
2019-04-11T00:03:27.323Z,6.10
2019-04-11T00:05:56.709Z,6.10
2019-04-11T00:08:45.975Z,6.10
2019-04-11T00:11:28.643Z,6.10
2019-04-11T00:14:09.998Z,6.00
2019-04-11T00:16:51.448Z,6.00
2019-04-11T00:19:33.653Z,6.00
2019-04-11T00:22:15.340Z,5.90
2019-04-11T00:24:55.940Z,5.90
2019-04-11T00:30:21.959Z,5.80
2019-04-11T00:33:03.609Z,5.80
2019-04-11T00:35:45.948Z,5.80
2019-04-11T00:41:13.380Z,5.80
2019-04-11T00:43:55.198Z,5.70
2019-04-11T00:46:37.253Z,5.70
2019-04-11T00:49:18.684Z,5.70
2019-04-11T00:52:00.498Z,5.60
2019-04-11T00:57:28.390Z,5.50
2019-04-11T01:00:11.030Z,5.50
2019-04-11T01:02:53.628Z,5.50
2019-04-11T01:05:35.145Z,5.50
2019-04-11T01:11:04.284Z,5.50
2019-04-11T01:19:36.763Z,5.50
2019-04-11T01:22:18.438Z,5.40
2019-04-11T01:25:00.182Z,5.30
2019-04-11T01:27:42.547Z,5.20
2019-04-11T01:30:30.636Z,5.20
2019-04-11T01:35:51.235Z,5.30
2019-04-11T01:41:18.373Z,5.20
2019-04-11T01:44:03.741Z,5.20
2019-04-11T01:49:28.332Z,5.20
2019-04-11T01:54:54.619Z,5.10
2019-04-11T01:57:36.158Z,5.10
2019-04-11T02:00:39.926Z,5.10
2019-04-11T02:03:27.272Z,5.10
2019-04-11T02:06:09.747Z,5.00
2019-04-11T02:08:51.379Z,5.00
2019-04-11T02:14:19.972Z,5.00
2019-04-11T02:17:01.314Z,5.00
2019-04-11T02:19:42.935Z,4.90
2019-04-11T02:25:36.656Z,4.90
2019-04-11T02:28:25.449Z,4.90
2019-04-11T02:31:09.065Z,4.80
2019-04-11T02:33:51.027Z,4.80
2019-04-11T02:36:35.760Z,4.80
2019-04-11T02:41:59.003Z,4.90
2019-04-11T02:44:59.856Z,4.80
2019-04-11T02:47:18.495Z,4.80
2019-04-11T02:50:03.619Z,4.70
2019-04-11T02:52:47.219Z,4.60
2019-04-11T02:55:29.546Z,4.50
2019-04-11T02:58:12.524Z,4.50
2019-04-11T03:01:00.298Z,4.60
2019-04-11T03:03:29.793Z,4.50
2019-04-11T03:06:00.437Z,4.50
2019-04-11T03:08:33.834Z,4.50
2019-04-11T03:11:02.088Z,4.50
2019-04-11T03:13:33.336Z,4.50
2019-04-11T03:16:17.252Z,4.50
2019-04-11T03:18:53.449Z,4.40
2019-04-11T03:21:11.357Z,4.40
2019-04-11T03:23:37.456Z,4.30
2019-04-11T03:26:07.530Z,4.30
2019-04-11T03:28:40.555Z,4.30
2019-04-11T03:31:47.260Z,4.30
2019-04-11T03:34:27.579Z,4.30
2019-04-11T03:37:06.827Z,4.30
2019-04-11T03:39:05.738Z,4.30
2019-04-11T03:41:34.722Z,4.30
2019-04-11T03:43:58.301Z,4.20
2019-04-11T03:46:35.331Z,4.20
2019-04-11T03:49:00.104Z,4.20
2019-04-11T03:51:22.773Z,4.30
2019-04-11T03:53:53.584Z,4.30
2019-04-11T03:56:24.399Z,4.20
2019-04-11T03:58:55.330Z,4.20
2019-04-11T04:01:26.707Z,4.20
2019-04-11T04:03:58.189Z,4.20
2019-04-11T04:06:28.731Z,4.20
2019-04-11T04:08:58.587Z,4.20
2019-04-11T04:11:30.490Z,4.10
2019-04-11T04:14:19.867Z,4.10
2019-04-11T04:17:10.511Z,4.10
2019-04-11T04:20:02.744Z,4.10
2019-04-11T04:22:49.637Z,4.10
2019-04-11T04:25:18.878Z,4.10
2019-04-11T04:27:49.166Z,4.20
2019-04-11T04:30:21.522Z,4.10
2019-04-11T04:32:50.004Z,4.20
2019-04-11T04:35:21.526Z,4.20
2019-04-11T04:37:51.676Z,4.10
2019-04-11T04:40:36.077Z,4.20
2019-04-11T04:42:55.345Z,4.20
2019-04-11T04:45:23.970Z,4.30
2019-04-11T04:48:00.474Z,4.20
2019-04-11T04:50:24.950Z,4.10
2019-04-11T04:52:55.967Z,4.00
2019-04-11T04:55:28.537Z,4.00
2019-04-11T04:57:58.217Z,4.00
2019-04-11T05:00:31.449Z,4.00
2019-04-11T05:03:01.889Z,4.20
2019-04-11T05:05:30.964Z,4.20
2019-04-11T05:08:00.783Z,4.10
2019-04-11T05:10:30.796Z,4.10
2019-04-11T05:13:00.533Z,4.10
2019-04-11T05:15:30.129Z,4.00
2019-04-11T05:17:59.870Z,3.90
2019-04-11T05:20:30.192Z,3.90
2019-04-11T05:23:00.034Z,3.90
2019-04-11T05:25:29.337Z,3.90
2019-04-11T05:27:59.936Z,4.00
2019-04-11T05:30:29.484Z,4.00
2019-04-11T05:32:59.684Z,4.10
2019-04-11T05:35:29.867Z,4.10
2019-04-11T05:37:59.877Z,4.10
2019-04-11T05:40:30.101Z,4.10
2019-04-11T05:43:00.225Z,4.20
2019-04-11T05:45:29.611Z,4.10
2019-04-11T05:48:01.029Z,4.10
2019-04-11T05:50:32.399Z,4.10
2019-04-11T05:53:03.839Z,4.20
2019-04-11T05:55:36.333Z,4.20
2019-04-11T05:58:11.015Z,4.20
2019-04-11T06:00:46.502Z,4.30
2019-04-11T06:03:15.996Z,4.40
2019-04-11T06:05:52.044Z,4.50
2019-04-11T06:08:26.544Z,4.60
2019-04-11T06:10:58.061Z,4.70
2019-04-11T06:13:46.833Z,4.70
2019-04-11T06:16:16.751Z,4.60
2019-04-11T06:19:11.047Z,4.70
2019-04-11T06:21:46.457Z,4.80
2019-04-11T06:24:48.135Z,4.90
2019-04-11T06:27:24.484Z,4.90
2019-04-11T06:30:01.265Z,4.90
2019-04-11T06:32:45.765Z,5.00
2019-04-11T06:35:34.177Z,5.10
2019-04-11T06:38:38.610Z,5.10
2019-04-11T06:41:15.303Z,5.10
2019-04-11T06:44:21.707Z,5.20
2019-04-11T06:47:06.869Z,5.30
2019-04-11T06:49:44.654Z,5.30
2019-04-11T06:52:14.870Z,5.40
2019-04-11T06:55:00.201Z,5.40
2019-04-11T06:57:30.057Z,5.50
2019-04-11T06:59:59.387Z,5.50
2019-04-11T07:02:30.011Z,5.60
2019-04-11T07:05:02.804Z,5.70
2019-04-11T07:07:35.685Z,5.80
2019-04-11T07:10:09.412Z,5.80
2019-04-11T07:12:42.806Z,5.80
2019-04-11T07:15:14.638Z,5.90
2019-04-11T07:18:03.085Z,6.00
2019-04-11T07:20:52.381Z,6.00
2019-04-11T07:23:51.165Z,6.10
2019-04-11T07:26:38.212Z,6.10
2019-04-11T07:29:26.617Z,6.20
2019-04-11T07:32:13.668Z,6.30
2019-04-11T07:35:15.619Z,6.40
2019-04-11T07:37:47.496Z,6.50
2019-04-11T07:40:38.945Z,6.60
2019-04-11T07:43:19.569Z,6.70
2019-04-11T07:46:24.995Z,6.80
2019-04-11T07:48:57.316Z,6.90
2019-04-11T07:51:28.276Z,7.00
2019-04-11T07:54:00.264Z,7.10
2019-04-11T07:56:58.682Z,7.10
2019-04-11T07:59:55.886Z,7.20
2019-04-11T08:02:43.326Z,7.40
2019-04-11T08:05:30.345Z,7.40
2019-04-11T08:08:27.465Z,7.50
2019-04-11T08:11:15.850Z,7.60
2019-04-11T08:14:16.227Z,7.80
2019-04-11T08:17:07.513Z,7.80
2019-04-11T08:20:15.185Z,7.80
2019-04-11T08:23:03.407Z,7.90
2019-04-11T08:26:04.054Z,8.10
2019-04-11T08:28:34.399Z,8.20
2019-04-11T08:31:21.742Z,8.20
2019-04-11T08:33:53.083Z,8.20
2019-04-11T08:36:40.091Z,8.40
2019-04-11T08:39:15.853Z,8.40
2019-04-11T08:42:03.246Z,8.60
2019-04-11T08:44:36.160Z,8.70
2019-04-11T08:47:09.919Z,8.90
2019-04-11T08:49:48.122Z,9.00
2019-04-11T08:52:27.899Z,9.10
2019-04-11T08:55:25.175Z,9.20
2019-04-11T08:58:02.529Z,9.20
2019-04-11T09:00:51.170Z,9.30
2019-04-11T09:03:38.094Z,9.40
2019-04-11T09:06:26.647Z,9.40
2019-04-11T09:09:23.007Z,9.40
2019-04-11T09:11:56.286Z,9.40
2019-04-11T09:14:44.305Z,9.40
2019-04-11T09:17:20.995Z,9.50
2019-04-11T09:20:27.655Z,9.40
2019-04-11T09:23:01.548Z,9.50
2019-04-11T09:25:51.591Z,9.60
2019-04-11T09:28:33.748Z,9.60
2019-04-11T09:31:41.454Z,9.60
2019-04-11T09:34:30.204Z,9.60
2019-04-11T09:37:05.220Z,9.70
2019-04-11T09:39:53.712Z,9.80
2019-04-11T09:42:51.311Z,9.90
2019-04-11T09:45:52.641Z,10.00
2019-04-11T09:48:30.084Z,10.00
2019-04-11T09:51:07.275Z,10.00
2019-04-11T09:53:38.754Z,10.00
2019-04-11T09:56:36.257Z,10.00
2019-04-11T09:59:10.331Z,10.10
2019-04-11T10:01:58.250Z,10.20
2019-04-11T10:04:29.735Z,10.20
2019-04-11T10:07:17.610Z,10.20
2019-04-11T10:10:19.012Z,10.30
2019-04-11T10:13:06.813Z,10.40
2019-04-11T10:15:53.986Z,10.50
2019-04-11T10:18:42.776Z,10.70
2019-04-11T10:21:13.462Z,10.90
2019-04-11T10:24:05.184Z,10.90
2019-04-11T10:26:38.242Z,10.90
2019-04-11T10:29:27.486Z,10.90
2019-04-11T10:31:56.904Z,10.80
2019-04-11T10:34:40.027Z,10.90
2019-04-11T10:37:13.667Z,11.00
2019-04-11T10:40:00.380Z,11.10
2019-04-11T10:42:30.754Z,11.20
2019-04-11T10:45:25.025Z,11.30
2019-04-11T10:47:57.704Z,11.30
2019-04-11T10:50:44.933Z,11.30
2019-04-11T10:53:14.994Z,11.40
2019-04-11T10:56:10.793Z,11.50
2019-04-11T10:58:49.090Z,11.50
2019-04-11T11:01:56.107Z,11.50
2019-04-11T11:04:28.591Z,11.50
2019-04-11T11:07:11.373Z,11.70
2019-04-11T11:09:47.934Z,11.90
2019-04-11T11:12:51.796Z,12.10
2019-04-11T11:15:27.524Z,12.20
2019-04-11T11:18:39.915Z,12.10
2019-04-11T11:20:54.985Z,12.20
2019-04-11T11:23:38.711Z,12.40
2019-04-11T11:26:26.176Z,12.70
2019-04-11T11:29:15.813Z,12.90
2019-04-11T11:31:56.969Z,13.10
2019-04-11T11:34:36.758Z,13.20
2019-04-11T11:37:31.239Z,13.60
2019-04-11T11:40:25.899Z,13.90
2019-04-11T11:43:12.098Z,14.00
2019-04-11T11:45:59.099Z,14.10
2019-04-11T11:48:46.291Z,14.40
2019-04-11T11:51:33.283Z,15.10
2019-04-11T11:54:21.825Z,16.60
2019-04-11T11:56:52.259Z,17.60
2019-04-11T11:59:44.826Z,18.10
2019-04-11T12:02:28.486Z,17.90
2019-04-11T12:05:26.941Z,18.40
2019-04-11T12:08:08.744Z,19.30
2019-04-11T12:10:44.175Z,18.70
2019-04-11T12:13:30.366Z,20.00
2019-04-11T12:16:21.318Z,21.90
2019-04-11T12:19:20.441Z,22.70
2019-04-11T12:21:49.610Z,22.10
2019-04-11T12:24:42.945Z,23.30
2019-04-11T12:27:46.778Z,24.20
2019-04-11T12:30:32.752Z,25.20
2019-04-11T12:33:19.377Z,24.50
2019-04-11T12:36:06.132Z,24.90
2019-04-11T12:38:57.287Z,25.20
2019-04-11T12:41:34.110Z,25.10
2019-04-11T12:44:22.450Z,25.40
2019-04-11T12:47:13.591Z,25.60
2019-04-11T12:50:00.376Z,26.20
2019-04-11T12:52:45.759Z,26.70
2019-04-11T12:55:18.991Z,26.90
2019-04-11T12:58:10.431Z,28.30
2019-04-11T13:00:58.857Z,29.30
2019-04-11T13:03:56.467Z,29.70
2019-04-11T13:06:37.454Z,30.20
2019-04-11T13:09:36.832Z,29.50
2019-04-11T13:12:06.410Z,29.50
2019-04-11T13:14:41.738Z,29.00
2019-04-11T13:17:14.060Z,29.10
2019-04-11T13:20:04.812Z,29.60
2019-04-11T13:22:33.615Z,29.60
2019-04-11T13:25:15.332Z,29.60
2019-04-11T13:27:48.314Z,29.80
2019-04-11T13:30:42.944Z,30.20
2019-04-11T13:33:18.872Z,30.20
2019-04-11T13:36:07.206Z,29.30
2019-04-11T13:38:44.338Z,29.40
2019-04-11T13:41:31.463Z,29.80
2019-04-11T13:44:10.306Z,30.40
2019-04-11T13:46:58.641Z,31.10
2019-04-11T13:49:40.174Z,32.20
2019-04-11T13:52:28.526Z,31.50
2019-04-11T13:55:17.331Z,30.50
2019-04-11T13:58:05.773Z,31.00
2019-04-11T14:00:43.438Z,29.70
2019-04-11T14:03:43.619Z,28.30
2019-04-11T14:06:20.976Z,28.20
2019-04-11T14:09:24.378Z,29.40
2019-04-11T14:12:12.986Z,29.60
2019-04-11T14:15:07.300Z,29.50
2019-04-11T14:17:55.617Z,28.60
2019-04-11T14:20:41.980Z,27.60
2019-04-11T14:23:33.803Z,29.20
2019-04-11T14:26:21.712Z,29.50
2019-04-11T14:29:08.820Z,30.90
2019-04-11T14:31:55.833Z,30.40
2019-04-11T14:34:34.184Z,29.50
2019-04-11T14:37:38.097Z,27.80
2019-04-11T14:40:19.396Z,26.90
2019-04-11T14:43:06.152Z,25.30
2019-04-11T14:45:53.205Z,24.90
2019-04-11T14:48:29.360Z,24.40
2019-04-11T14:51:17.855Z,27.00
2019-04-11T14:53:56.452Z,27.00
2019-04-11T14:56:27.133Z,26.40
2019-04-11T14:59:15.602Z,26.30
2019-04-11T15:01:47.228Z,27.90
2019-04-11T15:04:34.211Z,28.60
2019-04-11T15:07:04.035Z,27.70
2019-04-11T15:09:58.243Z,27.90
2019-04-11T15:12:29.224Z,27.50
2019-04-11T15:15:23.774Z,28.00
2019-04-11T15:17:56.083Z,28.80
2019-04-11T15:20:41.018Z,28.20
2019-04-11T15:23:13.088Z,28.30
2019-04-11T15:26:10.280Z,25.30
2019-04-11T15:28:54.080Z,24.40
2019-04-11T15:31:40.394Z,26.50
2019-04-11T15:34:17.882Z,26.90
2019-04-11T15:37:12.292Z,25.90
2019-04-11T15:39:59.337Z,24.50
2019-04-11T15:42:40.503Z,26.20
2019-04-11T15:45:18.728Z,27.30
2019-04-11T15:48:01.015Z,26.90
2019-04-11T15:50:48.112Z,26.80
2019-04-11T15:53:23.590Z,27.50
2019-04-11T15:56:27.125Z,27.30
2019-04-11T15:59:02.064Z,27.60
2019-04-11T16:02:05.420Z,28.40
2019-04-11T16:04:50.272Z,28.20
2019-04-11T16:07:44.568Z,26.40
2019-04-11T16:10:13.946Z,23.60
2019-04-11T16:12:51.168Z,20.00
2019-04-11T16:15:23.093Z,17.50
2019-04-11T16:18:11.258Z,16.20
2019-04-11T16:20:40.671Z,15.00
2019-04-11T16:23:29.023Z,14.50
2019-04-11T16:25:58.447Z,14.30
2019-04-11T16:28:45.323Z,14.10
2019-04-11T16:31:14.882Z,14.00
2019-04-11T16:34:01.566Z,14.40
2019-04-11T16:36:35.153Z,14.10
2019-04-11T16:39:22.064Z,14.50
2019-04-11T16:41:57.334Z,15.10
2019-04-11T16:44:46.274Z,15.90
2019-04-11T16:47:33.120Z,16.70
2019-04-11T16:50:02.435Z,17.50
2019-04-11T16:52:31.905Z,16.40
2019-04-11T16:55:01.334Z,16.70
2019-04-11T16:57:30.857Z,16.80
2019-04-11T17:00:00.175Z,16.50
2019-04-11T17:02:29.596Z,16.80
2019-04-11T17:04:59.046Z,16.80
2019-04-11T17:07:43.536Z,15.90
2019-04-11T17:10:13.983Z,15.00
2019-04-11T17:12:47.033Z,14.90
2019-04-11T17:15:16.455Z,14.40
2019-04-11T17:17:46.047Z,14.20
2019-04-11T17:20:15.552Z,13.80
2019-04-11T17:22:48.409Z,13.40
2019-04-11T17:25:17.615Z,13.50
2019-04-11T17:27:47.469Z,13.80
2019-04-11T17:30:16.905Z,14.10
2019-04-11T17:32:46.348Z,14.40
2019-04-11T17:35:15.815Z,14.00
2019-04-11T17:37:45.238Z,13.80
2019-04-11T17:40:14.660Z,13.70
2019-04-11T17:42:44.556Z,13.50
2019-04-11T17:45:13.938Z,12.90
2019-04-11T17:47:44.793Z,12.80
2019-04-11T17:50:16.430Z,12.80
2019-04-11T17:52:45.967Z,12.80
2019-04-11T17:55:15.660Z,12.60
2019-04-11T17:57:45.219Z,12.40
2019-04-11T18:00:22.280Z,12.20
2019-04-11T18:02:51.679Z,12.20
2019-04-11T18:05:21.081Z,12.40
2019-04-11T18:07:50.493Z,11.90
2019-04-11T18:10:20.334Z,11.60
2019-04-11T18:12:49.873Z,11.40
2019-04-11T18:15:19.585Z,11.20
2019-04-11T18:17:49.210Z,10.80
2019-04-11T18:20:19.016Z,10.50
2019-04-11T18:22:50.409Z,10.40
2019-04-11T18:25:21.037Z,10.30
2019-04-11T18:27:52.381Z,10.20
2019-04-11T18:30:23.279Z,10.10
2019-04-11T18:32:53.418Z,10.10
2019-04-11T18:35:23.100Z,10.00
2019-04-11T18:37:52.769Z,10.00
2019-04-11T18:40:22.746Z,9.80
2019-04-11T18:42:52.432Z,9.70
2019-04-11T18:45:23.320Z,9.60
2019-04-11T18:47:52.782Z,9.60
2019-04-11T18:50:22.936Z,9.50
2019-04-11T18:52:52.848Z,9.50
2019-04-11T18:55:22.502Z,9.40
2019-04-11T18:57:52.021Z,9.40
2019-04-11T19:00:23.624Z,9.40
2019-04-11T19:02:53.311Z,9.30
2019-04-11T19:05:28.630Z,9.30
2019-04-11T19:07:54.099Z,9.20
2019-04-11T19:10:23.658Z,9.10
2019-04-11T19:12:53.144Z,9.10
2019-04-11T19:15:22.652Z,9.00
2019-04-11T19:18:05.800Z,9.00
2019-04-11T19:20:25.274Z,9.10
2019-04-11T19:22:54.765Z,9.00
2019-04-11T19:25:24.424Z,9.00
2019-04-11T19:27:54.661Z,8.90
2019-04-11T19:30:26.399Z,8.90
2019-04-11T19:32:57.324Z,8.90
2019-04-11T19:35:27.193Z,8.80
2019-04-11T19:37:57.244Z,8.70
2019-04-11T19:40:26.848Z,8.70
2019-04-11T19:42:56.557Z,8.70
2019-04-11T19:45:26.053Z,8.60
2019-04-11T19:47:55.948Z,8.60
2019-04-11T19:50:26.711Z,8.50
2019-04-11T19:52:56.465Z,8.50
2019-04-11T19:55:43.668Z,8.50
2019-04-11T19:58:13.570Z,8.40
2019-04-11T20:00:43.100Z,8.40
2019-04-11T20:03:12.571Z,8.30
2019-04-11T20:05:42.091Z,8.30
2019-04-11T20:08:12.435Z,8.30
2019-04-11T20:10:42.030Z,8.30
2019-04-11T20:13:11.456Z,8.30
2019-04-11T20:15:42.481Z,8.20
2019-04-11T20:18:12.068Z,8.30
2019-04-11T20:20:44.767Z,8.20
2019-04-11T20:23:14.261Z,8.20
2019-04-11T20:25:48.989Z,8.20
2019-04-11T20:28:15.419Z,8.20
2019-04-11T20:30:45.041Z,8.10
2019-04-11T20:33:26.367Z,8.20
2019-04-11T20:35:46.006Z,8.10
2019-04-11T20:38:16.183Z,8.10
2019-04-11T20:40:46.224Z,8.10
2019-04-11T20:43:15.783Z,8.10
2019-04-11T20:45:45.528Z,8.00
2019-04-11T20:48:14.927Z,8.00
2019-04-11T20:50:44.392Z,8.00
2019-04-11T20:53:13.867Z,8.00
2019-04-11T20:55:43.328Z,8.00
2019-04-11T20:58:12.751Z,8.00
2019-04-11T21:00:50.457Z,7.90
2019-04-11T21:03:13.192Z,7.90
2019-04-11T21:05:42.687Z,7.80
2019-04-11T21:08:12.116Z,7.70
2019-04-11T21:10:41.544Z,7.60
2019-04-11T21:13:11.087Z,7.60
2019-04-11T21:15:40.499Z,7.70
2019-04-11T21:18:09.937Z,7.70
2019-04-11T21:20:39.744Z,7.60
2019-04-11T21:23:09.347Z,7.60
2019-04-11T21:25:38.776Z,7.60
2019-04-11T21:28:08.219Z,7.60
2019-04-11T21:30:37.599Z,7.60
2019-04-11T21:33:06.999Z,7.60
2019-04-11T21:35:36.351Z,7.60
2019-04-11T21:38:05.759Z,7.60
2019-04-11T21:40:35.990Z,7.50
2019-04-11T21:43:06.710Z,7.50
2019-04-11T21:45:36.560Z,7.50
2019-04-11T21:48:06.942Z,7.50
2019-04-11T21:50:40.386Z,7.50
2019-04-11T21:53:13.873Z,7.60
2019-04-11T21:55:41.462Z,7.60
2019-04-11T21:58:10.886Z,7.50
2019-04-11T22:00:43.677Z,7.50
2019-04-11T22:03:13.237Z,7.40
2019-04-11T22:05:42.802Z,7.40
2019-04-11T22:08:12.232Z,7.30
2019-04-11T22:10:41.831Z,7.30
2019-04-11T22:13:11.301Z,7.30
2019-04-11T22:15:42.511Z,7.30
2019-04-11T22:18:15.864Z,7.20
2019-04-11T22:20:45.252Z,7.20
2019-04-11T22:23:13.928Z,7.20
2019-04-11T22:25:43.357Z,7.20
2019-04-11T22:28:12.746Z,7.20
2019-04-11T22:30:42.171Z,7.20
2019-04-11T22:33:28.320Z,7.10
2019-04-11T22:35:59.361Z,7.10
2019-04-11T22:38:30.982Z,7.10
2019-04-11T22:41:02.170Z,7.10
2019-04-11T22:43:31.252Z,7.10
2019-04-11T22:46:00.642Z,7.20
2019-04-11T22:48:30.086Z,7.10
2019-04-11T22:50:59.543Z,7.10
2019-04-11T22:53:28.993Z,7.00
2019-04-11T22:55:58.417Z,7.00
2019-04-11T22:58:27.821Z,7.00
2019-04-11T23:01:50.323Z,6.90
2019-04-11T23:04:19.753Z,6.90
2019-04-11T23:06:49.116Z,6.90
2019-04-11T23:09:19.474Z,6.90
2019-04-11T23:11:49.193Z,6.80
2019-04-11T23:14:18.606Z,6.80
2019-04-11T23:16:48.077Z,6.80
2019-04-11T23:19:17.490Z,6.80
2019-04-11T23:21:46.906Z,6.80
2019-04-11T23:24:16.340Z,6.70
2019-04-11T23:26:45.731Z,6.80
2019-04-11T23:29:16.125Z,6.70
2019-04-11T23:31:46.017Z,6.70
2019-04-11T23:34:15.439Z,6.70
2019-04-11T23:36:44.888Z,6.70
2019-04-11T23:39:14.290Z,6.70
2019-04-11T23:41:43.749Z,6.60
2019-04-11T23:44:13.148Z,6.60
2019-04-11T23:46:42.562Z,6.60
2019-04-11T23:49:12.013Z,6.50
2019-04-11T23:51:41.443Z,6.50
2019-04-11T23:54:10.870Z,6.60
2019-04-11T23:56:40.305Z,6.60
2019-04-11T23:59:09.810Z,6.50
